createdAt,value
2022-11-18T00:03:35.834Z,1000.25
2022-11-18T00:08:43.061Z,1000.17
2022-11-18T00:13:50.234Z,1000.08
2022-11-18T00:18:57.490Z,1000.03
2022-11-18T00:24:04.653Z,999.78
2022-11-18T00:29:11.843Z,999.70
2022-11-18T00:34:19.140Z,999.76
2022-11-18T00:39:26.267Z,999.78
2022-11-18T00:44:33.479Z,999.76
2022-11-18T00:49:40.991Z,999.70
2022-11-18T00:54:48.342Z,999.67
2022-11-18T00:59:55.623Z,999.65
2022-11-18T01:05:02.841Z,999.64
2022-11-18T01:10:10.028Z,999.71
2022-11-18T01:15:17.278Z,999.65
2022-11-18T01:20:24.525Z,999.86
2022-11-18T01:25:31.669Z,1000.02
2022-11-18T01:30:38.932Z,1000.16
2022-11-18T01:35:46.174Z,1000.11
2022-11-18T01:40:53.356Z,1000.14
2022-11-18T01:46:00.545Z,1000.25
2022-11-18T01:51:07.794Z,1000.39
2022-11-18T01:56:14.962Z,1000.53
2022-11-18T02:01:22.241Z,1000.67
2022-11-18T02:06:29.472Z,1000.83
2022-11-18T02:11:36.661Z,1001.14
2022-11-18T02:16:43.820Z,1001.34
2022-11-18T02:21:51.098Z,1001.62
2022-11-18T02:26:58.381Z,1001.73
2022-11-18T02:32:05.611Z,1001.83
2022-11-18T02:37:12.860Z,1001.59
2022-11-18T02:42:20.091Z,1001.15
2022-11-18T02:47:27.431Z,1001.28
2022-11-18T02:52:34.773Z,1001.31
2022-11-18T02:57:42.161Z,1001.30
2022-11-18T03:02:49.584Z,1001.50
2022-11-18T03:07:57.030Z,1001.32
2022-11-18T03:13:04.420Z,1001.26
2022-11-18T03:18:11.938Z,1001.13
2022-11-18T03:23:19.345Z,1001.17
2022-11-18T03:28:26.726Z,1001.01
2022-11-18T03:33:34.228Z,1001.24
2022-11-18T03:38:41.590Z,1001.34
2022-11-18T03:43:48.839Z,1001.47
2022-11-18T03:48:56.124Z,1001.52
2022-11-18T03:54:03.450Z,1001.53
2022-11-18T03:59:10.688Z,1001.62
2022-11-18T04:04:17.896Z,1001.62
2022-11-18T04:09:25.186Z,1001.66
2022-11-18T04:14:32.409Z,1001.83
2022-11-18T04:19:39.717Z,1001.77
2022-11-18T04:24:46.903Z,1001.84
2022-11-18T04:29:54.217Z,1001.90
2022-11-18T04:35:01.457Z,1001.85
2022-11-18T04:40:08.800Z,1001.96
2022-11-18T04:45:15.876Z,1002.03
2022-11-18T04:50:23.260Z,1002.02
2022-11-18T04:55:30.658Z,1001.97
2022-11-18T05:00:37.862Z,1002.18
2022-11-18T05:05:45.230Z,1002.14
2022-11-18T05:10:52.556Z,1002.29
2022-11-18T05:15:59.721Z,1002.20
2022-11-18T05:21:07.063Z,1002.24
2022-11-18T05:26:14.394Z,1002.31
2022-11-18T05:31:21.727Z,1002.37
2022-11-18T05:36:28.933Z,1002.44
2022-11-18T05:41:36.367Z,1002.55
2022-11-18T05:46:43.714Z,1002.54
2022-11-18T05:51:51.111Z,1002.58
2022-11-18T05:56:58.660Z,1002.58
2022-11-18T06:02:06.057Z,1002.57
2022-11-18T06:07:13.363Z,1002.62
2022-11-18T06:12:20.663Z,1002.58
2022-11-18T06:17:27.999Z,1003.16
2022-11-18T06:22:35.301Z,1003.40
2022-11-18T06:27:42.621Z,1003.04
2022-11-18T06:32:49.726Z,1003.07
2022-11-18T06:37:56.982Z,1003.03
2022-11-18T06:43:04.194Z,1003.16
2022-11-18T06:48:11.587Z,1003.15
2022-11-18T06:53:18.949Z,1003.14
2022-11-18T06:58:26.330Z,1003.19
2022-11-18T07:03:33.757Z,1003.28
2022-11-18T07:08:41.169Z,1003.26
2022-11-18T07:13:48.830Z,1003.17
2022-11-18T07:18:56.064Z,1003.22
2022-11-18T07:24:03.224Z,1003.76
2022-11-18T07:29:10.482Z,1004.24
2022-11-18T07:34:17.931Z,1004.41
2022-11-18T07:39:25.258Z,1004.32
2022-11-18T07:44:32.760Z,1004.28
2022-11-18T07:49:40.103Z,1004.31
2022-11-18T07:54:47.383Z,1004.23
2022-11-18T07:59:54.876Z,1004.25
2022-11-18T08:05:02.231Z,1004.28
2022-11-18T08:10:09.312Z,1004.35
2022-11-18T08:15:16.529Z,1004.29
2022-11-18T08:20:23.686Z,1004.37
2022-11-18T08:25:30.918Z,1004.39
2022-11-18T08:30:38.212Z,1004.45
2022-11-18T08:35:45.409Z,1004.45
2022-11-18T08:40:52.667Z,1004.53
2022-11-18T08:45:59.861Z,1004.58
2022-11-18T08:51:07.100Z,1004.58
2022-11-18T08:56:15.288Z,1004.59
2022-11-18T09:01:21.551Z,1004.51
2022-11-18T09:06:28.653Z,1004.56
2022-11-18T09:11:35.813Z,1004.66
2022-11-18T09:16:42.971Z,1004.73
2022-11-18T09:21:50.189Z,1004.77
2022-11-18T09:26:57.408Z,1004.83
2022-11-18T09:32:04.642Z,1004.85
2022-11-18T09:37:11.798Z,1004.86
2022-11-18T09:42:18.971Z,1005.00
2022-11-18T09:47:26.212Z,1004.94
2022-11-18T09:52:36.144Z,1004.96
2022-11-18T09:57:40.591Z,1005.10
2022-11-18T10:02:47.843Z,1005.11
2022-11-18T10:07:55.026Z,1005.09
2022-11-18T10:13:02.248Z,1005.13
2022-11-18T10:18:09.551Z,1005.23
2022-11-18T10:23:16.794Z,1005.24
2022-11-18T10:28:23.999Z,1005.17
2022-11-18T10:33:31.278Z,1005.17
2022-11-18T10:38:38.481Z,1005.27
2022-11-18T10:43:45.744Z,1005.31
2022-11-18T10:48:52.947Z,1005.31
2022-11-18T10:54:00.137Z,1005.39
2022-11-18T10:59:07.390Z,1005.36
2022-11-18T11:04:14.889Z,1005.33
2022-11-18T11:09:21.700Z,1005.34
2022-11-18T11:14:28.974Z,1005.39
2022-11-18T11:19:36.187Z,1005.38
2022-11-18T11:24:43.377Z,1005.36
2022-11-18T11:29:50.530Z,1005.37
2022-11-18T11:34:57.774Z,1005.38
2022-11-18T11:40:05.005Z,1005.40
2022-11-18T11:45:12.216Z,1005.36
2022-11-18T11:50:19.474Z,1005.36
2022-11-18T11:55:26.692Z,1005.36
2022-11-18T12:00:33.903Z,1005.39
2022-11-18T12:05:41.165Z,1005.34
2022-11-18T12:10:48.384Z,1005.28
2022-11-18T12:15:55.613Z,1005.37
2022-11-18T12:21:02.810Z,1005.43
2022-11-18T12:26:09.940Z,1005.45
2022-11-18T12:31:17.182Z,1005.45
2022-11-18T12:36:24.454Z,1005.49
2022-11-18T12:41:31.641Z,1005.51
2022-11-18T12:46:44.282Z,1005.52
2022-11-18T12:51:46.176Z,1005.59
2022-11-18T12:56:53.394Z,1005.63
2022-11-18T13:02:00.678Z,1005.69
2022-11-18T13:07:07.945Z,1005.76
2022-11-18T13:12:15.084Z,1005.82
2022-11-18T13:17:22.281Z,1005.99
2022-11-18T13:22:29.520Z,1006.01
2022-11-18T13:27:36.662Z,1006.02
2022-11-18T13:32:43.864Z,1005.97
2022-11-18T13:37:51.119Z,1006.00
2022-11-18T13:42:58.316Z,1005.96
2022-11-18T13:48:05.544Z,1005.93
2022-11-18T13:53:12.783Z,1005.93
2022-11-18T13:58:20.045Z,1005.89
2022-11-18T14:03:27.268Z,1005.91
2022-11-18T14:08:34.584Z,1005.98
2022-11-18T14:13:44.561Z,1006.13
2022-11-18T14:18:51.834Z,1006.16
2022-11-18T14:23:59.154Z,1006.12
2022-11-18T14:29:06.261Z,1006.16
2022-11-18T14:34:13.488Z,1006.11
2022-11-18T14:39:26.415Z,1006.13
2022-11-18T14:44:27.980Z,1006.06
2022-11-18T14:49:35.164Z,1005.98
2022-11-18T14:54:42.454Z,1006.05
2022-11-18T14:59:49.609Z,1006.15
2022-11-18T15:04:56.847Z,1006.19
2022-11-18T15:10:04.081Z,1006.29
2022-11-18T15:15:11.279Z,1006.37
2022-11-18T15:20:18.511Z,1006.61
2022-11-18T15:25:25.823Z,1006.73
2022-11-18T15:30:32.996Z,1006.84
2022-11-18T15:35:40.159Z,1006.91
2022-11-18T15:40:47.388Z,1006.88
2022-11-18T15:45:54.603Z,1006.83
2022-11-18T15:51:01.818Z,1006.83
2022-11-18T15:56:09.086Z,1006.92
2022-11-18T16:01:16.403Z,1006.89
2022-11-18T16:06:23.523Z,1006.83
2022-11-18T16:11:30.753Z,1006.81
2022-11-18T16:16:37.932Z,1006.85
2022-11-18T16:21:45.179Z,1006.78
2022-11-18T16:26:52.458Z,1006.84
2022-11-18T16:31:59.628Z,1006.88
2022-11-18T16:37:06.884Z,1006.92
2022-11-18T16:42:14.139Z,1006.95
2022-11-18T16:47:21.359Z,1006.92
2022-11-18T16:52:28.590Z,1006.96
2022-11-18T16:57:35.874Z,1006.98
2022-11-18T17:02:43.985Z,1006.99
2022-11-18T17:07:51.151Z,1007.08
2022-11-18T17:12:58.651Z,1007.05
2022-11-18T17:18:42.766Z,1007.22
2022-11-18T17:23:49.992Z,1007.12
2022-11-18T17:28:57.424Z,1007.39
2022-11-18T17:34:04.720Z,1007.36
2022-11-18T17:39:11.943Z,1007.26
2022-11-18T17:44:19.510Z,1007.34
2022-11-18T17:49:26.324Z,1007.42
2022-11-18T17:54:33.549Z,1007.55
2022-11-18T17:59:40.897Z,1007.62
2022-11-18T18:04:48.057Z,1007.69
2022-11-18T18:09:55.447Z,1007.68
2022-11-18T18:15:03.160Z,1007.80
2022-11-18T18:20:10.322Z,1007.83
2022-11-18T18:25:17.779Z,1007.82
2022-11-18T18:30:25.228Z,1007.72
2022-11-18T18:35:32.540Z,1007.84
2022-11-18T18:40:40.108Z,1007.88
2022-11-18T18:45:48.259Z,1007.90
2022-11-18T18:50:56.468Z,1007.87
2022-11-18T18:56:04.084Z,1007.91
2022-11-18T19:01:11.857Z,1007.88
2022-11-18T19:06:50.040Z,1007.93
2022-11-18T19:11:26.919Z,1008.00
2022-11-18T19:16:34.356Z,1007.99
2022-11-18T19:21:42.045Z,1008.02
2022-11-18T19:26:49.564Z,1008.03
2022-11-18T19:31:57.167Z,1008.06
2022-11-18T19:37:04.482Z,1008.04
2022-11-18T19:42:11.829Z,1008.12
2022-11-18T19:47:19.327Z,1008.08
2022-11-18T19:52:26.851Z,1008.07
2022-11-18T19:57:34.178Z,1008.03
2022-11-18T20:02:41.394Z,1008.07
2022-11-18T20:07:48.849Z,1008.09
2022-11-18T20:12:56.551Z,1008.16
2022-11-18T20:18:04.192Z,1008.15
2022-11-18T20:23:11.741Z,1008.13
2022-11-18T20:28:19.193Z,1008.12
2022-11-18T20:33:26.831Z,1008.04
2022-11-18T20:38:34.529Z,1008.04
2022-11-18T20:43:41.868Z,1008.11
2022-11-18T20:48:49.376Z,1008.10
2022-11-18T20:53:56.650Z,1008.07
2022-11-18T20:59:04.167Z,1008.07
2022-11-18T21:04:11.801Z,1008.02
2022-11-18T21:09:19.356Z,1008.16
2022-11-18T21:14:26.492Z,1008.23
2022-11-18T21:19:34.227Z,1008.22
2022-11-18T21:24:41.272Z,1008.24
2022-11-18T21:29:48.481Z,1008.34
2022-11-18T21:34:55.674Z,1008.46
2022-11-18T21:40:02.845Z,1008.52
2022-11-18T21:45:10.135Z,1008.50
2022-11-18T21:50:17.365Z,1008.60
2022-11-18T21:55:24.577Z,1008.56
2022-11-18T22:00:31.841Z,1008.58
2022-11-18T22:05:38.973Z,1008.56
2022-11-18T22:10:46.164Z,1008.66
2022-11-18T22:15:53.384Z,1008.64
2022-11-18T22:21:00.603Z,1008.67
2022-11-18T22:26:07.866Z,1008.63
2022-11-18T22:31:15.118Z,1008.65
2022-11-18T22:36:22.323Z,1008.69
2022-11-18T22:41:29.485Z,1008.61
2022-11-18T22:46:36.693Z,1008.53
2022-11-18T22:51:43.886Z,1008.61
2022-11-18T22:56:51.017Z,1008.58
2022-11-18T23:01:58.197Z,1008.60
2022-11-18T23:07:05.527Z,1008.61
2022-11-18T23:12:12.625Z,1008.70
2022-11-18T23:17:19.865Z,1008.74
2022-11-18T23:22:27.047Z,1008.71
2022-11-18T23:27:34.264Z,1008.57
2022-11-18T23:32:41.429Z,1008.60
2022-11-18T23:37:48.654Z,1008.59
2022-11-18T23:42:55.799Z,1008.63
2022-11-18T23:48:03.142Z,1008.61
2022-11-18T23:53:10.383Z,1008.56
2022-11-18T23:58:17.573Z,1008.52
